sensor_id;sensor_type;location;lat;lon;timestamp;pressure;altitude;pressure_sealevel;temperature;humidity
72096;BME280;59968;51.084;16.748;2023-11-19T00:01:29;100674.02;;;5.26;77.34
72096;BME280;59968;51.084;16.748;2023-11-19T00:03:57;100662.27;;;5.21;77.31
72096;BME280;59968;51.084;16.748;2023-11-19T00:09:40;100640.92;;;5.20;77.34
72096;BME280;59968;51.084;16.748;2023-11-19T00:12:09;100637.52;;;5.18;77.28
72096;BME280;59968;51.084;16.748;2023-11-19T00:14:38;100626.73;;;5.16;77.26
72096;BME280;59968;51.084;16.748;2023-11-19T00:17:06;100627.51;;;5.14;77.26
72096;BME280;59968;51.084;16.748;2023-11-19T00:19:34;100624.35;;;5.11;77.32
72096;BME280;59968;51.084;16.748;2023-11-19T00:22:03;100627.34;;;5.10;77.39
72096;BME280;59968;51.084;16.748;2023-11-19T00:24:32;100628.18;;;5.08;77.30
72096;BME280;59968;51.084;16.748;2023-11-19T00:27:00;100618.25;;;5.01;77.27
72096;BME280;59968;51.084;16.748;2023-11-19T00:29:28;100621.02;;;5.06;77.26
72096;BME280;59968;51.084;16.748;2023-11-19T00:31:57;100614.06;;;5.04;77.34
72096;BME280;59968;51.084;16.748;2023-11-19T00:34:26;100613.91;;;5.02;77.42
72096;BME280;59968;51.084;16.748;2023-11-19T00:36:54;100612.49;;;5.01;77.40
72096;BME280;59968;51.084;16.748;2023-11-19T00:39:23;100623.56;;;4.87;77.71
72096;BME280;59968;51.084;16.748;2023-11-19T00:41:51;100614.29;;;4.82;77.93
72096;BME280;59968;51.084;16.748;2023-11-19T00:44:20;100591.15;;;4.78;78.10
72096;BME280;59968;51.084;16.748;2023-11-19T00:46:48;100573.92;;;4.78;78.17
72096;BME280;59968;51.084;16.748;2023-11-19T00:49:16;100579.25;;;4.77;78.20
72096;BME280;59968;51.084;16.748;2023-11-19T00:51:45;100576.05;;;4.72;78.21
72096;BME280;59968;51.084;16.748;2023-11-19T00:54:13;100585.55;;;4.74;78.22
72096;BME280;59968;51.084;16.748;2023-11-19T00:56:41;100580.59;;;4.71;78.34
72096;BME280;59968;51.084;16.748;2023-11-19T00:59:10;100575.66;;;4.69;78.22
72096;BME280;59968;51.084;16.748;2023-11-19T01:01:38;100561.64;;;4.66;78.30
72096;BME280;59968;51.084;16.748;2023-11-19T01:04:07;100546.69;;;4.62;78.42
72096;BME280;59968;51.084;16.748;2023-11-19T01:06:37;100533.48;;;4.64;78.47
72096;BME280;59968;51.084;16.748;2023-11-19T01:09:16;100521.14;;;4.62;78.34
72096;BME280;59968;51.084;16.748;2023-11-19T01:11:45;100512.80;;;4.57;78.50
72096;BME280;59968;51.084;16.748;2023-11-19T01:14:13;100510.86;;;4.54;78.61
72096;BME280;59968;51.084;16.748;2023-11-19T01:16:42;100506.31;;;4.50;78.71
72096;BME280;59968;51.084;16.748;2023-11-19T01:19:11;100493.27;;;4.47;78.77
72096;BME280;59968;51.084;16.748;2023-11-19T01:21:45;100473.11;;;4.44;79.00
72096;BME280;59968;51.084;16.748;2023-11-19T01:24:13;100462.45;;;4.43;79.10
72096;BME280;59968;51.084;16.748;2023-11-19T01:26:45;100459.02;;;4.43;79.11
72096;BME280;59968;51.084;16.748;2023-11-19T01:29:14;100461.33;;;4.46;79.07
72096;BME280;59968;51.084;16.748;2023-11-19T01:31:43;100459.40;;;4.46;79.06
72096;BME280;59968;51.084;16.748;2023-11-19T01:34:13;100451.25;;;4.44;79.07
72096;BME280;59968;51.084;16.748;2023-11-19T01:36:42;100453.33;;;4.44;79.29
72096;BME280;59968;51.084;16.748;2023-11-19T01:39:10;100453.95;;;4.41;79.34
72096;BME280;59968;51.084;16.748;2023-11-19T01:41:38;100458.80;;;4.42;79.31
72096;BME280;59968;51.084;16.748;2023-11-19T01:44:07;100451.91;;;4.43;79.43
72096;BME280;59968;51.084;16.748;2023-11-19T01:46:35;100453.99;;;4.42;79.50
72096;BME280;59968;51.084;16.748;2023-11-19T01:49:04;100453.34;;;4.44;79.50
72096;BME280;59968;51.084;16.748;2023-11-19T01:51:33;100446.76;;;4.44;79.53
72096;BME280;59968;51.084;16.748;2023-11-19T01:54:02;100446.83;;;4.44;79.43
72096;BME280;59968;51.084;16.748;2023-11-19T01:56:31;100445.59;;;4.44;79.61
72096;BME280;59968;51.084;16.748;2023-11-19T01:59:00;100440.70;;;4.47;79.53
72096;BME280;59968;51.084;16.748;2023-11-19T02:01:29;100426.67;;;4.49;79.52
72096;BME280;59968;51.084;16.748;2023-11-19T02:03:58;100419.41;;;4.51;79.50
72096;BME280;59968;51.084;16.748;2023-11-19T02:06:27;100413.89;;;4.51;79.39
72096;BME280;59968;51.084;16.748;2023-11-19T02:08:56;100413.14;;;4.50;79.47
72096;BME280;59968;51.084;16.748;2023-11-19T02:11:25;100414.31;;;4.52;79.41
72096;BME280;59968;51.084;16.748;2023-11-19T02:13:57;100404.02;;;4.52;79.37
72096;BME280;59968;51.084;16.748;2023-11-19T02:16:25;100398.63;;;4.53;79.40
72096;BME280;59968;51.084;16.748;2023-11-19T02:18:57;100391.64;;;4.53;79.45
72096;BME280;59968;51.084;16.748;2023-11-19T02:21:26;100389.65;;;4.52;79.42
72096;BME280;59968;51.084;16.748;2023-11-19T02:23:54;100390.28;;;4.55;79.31
72096;BME280;59968;51.084;16.748;2023-11-19T02:27:02;100386.55;;;4.54;79.24
72096;BME280;59968;51.084;16.748;2023-11-19T02:29:30;100385.79;;;4.55;79.12
72096;BME280;59968;51.084;16.748;2023-11-19T02:31:59;100381.95;;;4.54;79.14
72096;BME280;59968;51.084;16.748;2023-11-19T02:34:30;100382.70;;;4.53;79.12
72096;BME280;59968;51.084;16.748;2023-11-19T02:36:59;100385.20;;;4.54;79.14
72096;BME280;59968;51.084;16.748;2023-11-19T02:39:27;100381.34;;;4.57;78.95
72096;BME280;59968;51.084;16.748;2023-11-19T02:41:55;100367.25;;;4.57;78.85
72096;BME280;59968;51.084;16.748;2023-11-19T02:44:23;100363.02;;;4.53;78.94
72096;BME280;59968;51.084;16.748;2023-11-19T02:46:51;100371.90;;;4.52;78.94
72096;BME280;59968;51.084;16.748;2023-11-19T02:49:19;100372.05;;;4.47;78.83
72096;BME280;59968;51.084;16.748;2023-11-19T02:51:48;100359.73;;;4.40;79.03
72096;BME280;59968;51.084;16.748;2023-11-19T02:54:17;100346.70;;;4.38;79.22
72096;BME280;59968;51.084;16.748;2023-11-19T02:56:45;100340.29;;;4.37;79.19
72096;BME280;59968;51.084;16.748;2023-11-19T02:59:23;100341.77;;;4.40;79.22
72096;BME280;59968;51.084;16.748;2023-11-19T03:02:07;100324.70;;;4.39;79.14
72096;BME280;59968;51.084;16.748;2023-11-19T03:04:40;100308.91;;;4.48;79.06
72096;BME280;59968;51.084;16.748;2023-11-19T03:07:08;100303.65;;;4.53;78.82
72096;BME280;59968;51.084;16.748;2023-11-19T03:09:37;100305.95;;;4.55;78.69
72096;BME280;59968;51.084;16.748;2023-11-19T03:12:08;100299.41;;;4.57;78.55
72096;BME280;59968;51.084;16.748;2023-11-19T03:14:36;100289.81;;;4.58;78.51
72096;BME280;59968;51.084;16.748;2023-11-19T03:17:05;100286.35;;;4.58;78.49
72096;BME280;59968;51.084;16.748;2023-11-19T03:19:34;100282.38;;;4.58;78.45
72096;BME280;59968;51.084;16.748;2023-11-19T03:22:02;100284.90;;;4.57;78.43
72096;BME280;59968;51.084;16.748;2023-11-19T03:24:31;100285.05;;;4.56;78.34
72096;BME280;59968;51.084;16.748;2023-11-19T03:26:59;100278.45;;;4.55;78.44
72096;BME280;59968;51.084;16.748;2023-11-19T03:29:27;100279.10;;;4.53;78.52
72096;BME280;59968;51.084;16.748;2023-11-19T03:31:56;100277.39;;;4.53;78.47
72096;BME280;59968;51.084;16.748;2023-11-19T03:34:24;100285.27;;;4.50;78.40
72096;BME280;59968;51.084;16.748;2023-11-19T03:36:52;100277.71;;;4.49;78.53
72096;BME280;59968;51.084;16.748;2023-11-19T03:39:21;100266.02;;;4.46;78.68
72096;BME280;59968;51.084;16.748;2023-11-19T03:41:52;100255.03;;;4.46;78.71
72096;BME280;59968;51.084;16.748;2023-11-19T03:44:20;100249.73;;;4.46;78.63
72096;BME280;59968;51.084;16.748;2023-11-19T03:46:48;100249.36;;;4.43;78.68
72096;BME280;59968;51.084;16.748;2023-11-19T03:49:17;100239.38;;;4.42;78.79
72096;BME280;59968;51.084;16.748;2023-11-19T03:51:45;100222.92;;;4.42;78.77
72096;BME280;59968;51.084;16.748;2023-11-19T03:54:13;100208.20;;;4.42;78.61
72096;BME280;59968;51.084;16.748;2023-11-19T03:56:41;100194.01;;;4.40;78.67
72096;BME280;59968;51.084;16.748;2023-11-19T03:59:09;100187.73;;;4.41;78.68
72096;BME280;59968;51.084;16.748;2023-11-19T04:01:37;100191.87;;;4.39;78.54
72096;BME280;59968;51.084;16.748;2023-11-19T04:04:06;100196.23;;;4.36;78.60
72096;BME280;59968;51.084;16.748;2023-11-19T04:06:35;100194.67;;;4.37;78.48
72096;BME280;59968;51.084;16.748;2023-11-19T04:09:03;100184.25;;;4.40;78.48
72096;BME280;59968;51.084;16.748;2023-11-19T04:11:31;100178.08;;;4.38;78.50
72096;BME280;59968;51.084;16.748;2023-11-19T04:14:00;100168.52;;;4.38;78.53
72096;BME280;59968;51.084;16.748;2023-11-19T04:16:28;100166.07;;;4.38;78.41
72096;BME280;59968;51.084;16.748;2023-11-19T04:18:59;100164.25;;;4.41;78.46
72096;BME280;59968;51.084;16.748;2023-11-19T04:21:27;100154.34;;;4.41;78.49
72096;BME280;59968;51.084;16.748;2023-11-19T04:23:55;100130.80;;;4.39;78.47
72096;BME280;59968;51.084;16.748;2023-11-19T04:26:24;100116.00;;;4.38;78.41
72096;BME280;59968;51.084;16.748;2023-11-19T04:28:52;100110.09;;;4.38;78.43
72096;BME280;59968;51.084;16.748;2023-11-19T04:31:20;100097.25;;;4.39;78.39
72096;BME280;59968;51.084;16.748;2023-11-19T04:33:48;100081.60;;;4.39;78.42
72096;BME280;59968;51.084;16.748;2023-11-19T04:36:18;100073.36;;;4.43;78.33
72096;BME280;59968;51.084;16.748;2023-11-19T04:38:47;100078.02;;;4.46;78.13
72096;BME280;59968;51.084;16.748;2023-11-19T04:41:15;100077.75;;;4.43;78.06
72096;BME280;59968;51.084;16.748;2023-11-19T04:43:43;100074.49;;;4.44;78.06
72096;BME280;59968;51.084;16.748;2023-11-19T04:46:11;100074.61;;;4.42;78.08
72096;BME280;59968;51.084;16.748;2023-11-19T04:48:39;100078.34;;;4.41;77.99
72096;BME280;59968;51.084;16.748;2023-11-19T04:51:09;100074.36;;;4.37;77.97
72096;BME280;59968;51.084;16.748;2023-11-19T04:53:38;100073.49;;;4.35;78.11
72096;BME280;59968;51.084;16.748;2023-11-19T04:56:12;100068.36;;;4.35;78.24
72096;BME280;59968;51.084;16.748;2023-11-19T04:58:41;100048.88;;;4.24;78.21
72096;BME280;59968;51.084;16.748;2023-11-19T05:01:14;100061.35;;;4.33;78.28
72096;BME280;59968;51.084;16.748;2023-11-19T05:03:44;100057.84;;;4.31;78.40
72096;BME280;59968;51.084;16.748;2023-11-19T05:06:14;100054.24;;;4.29;78.48
72096;BME280;59968;51.084;16.748;2023-11-19T05:08:44;100043.30;;;4.27;78.43
72096;BME280;59968;51.084;16.748;2023-11-19T05:11:12;100046.81;;;4.32;78.42
72096;BME280;59968;51.084;16.748;2023-11-19T05:13:46;100040.55;;;4.34;78.34
72096;BME280;59968;51.084;16.748;2023-11-19T05:16:14;100027.64;;;4.36;78.37
72096;BME280;59968;51.084;16.748;2023-11-19T05:18:43;100024.82;;;4.39;78.25
72096;BME280;59968;51.084;16.748;2023-11-19T05:21:12;100017.20;;;4.41;78.18
72096;BME280;59968;51.084;16.748;2023-11-19T05:23:41;100014.24;;;4.42;78.13
72096;BME280;59968;51.084;16.748;2023-11-19T05:26:17;100013.69;;;4.41;78.02
72096;BME280;59968;51.084;16.748;2023-11-19T05:28:45;100015.38;;;4.42;78.09
72096;BME280;59968;51.084;16.748;2023-11-19T05:31:14;100012.02;;;4.43;78.08
72096;BME280;59968;51.084;16.748;2023-11-19T05:33:43;100013.77;;;4.43;78.04
72096;BME280;59968;51.084;16.748;2023-11-19T05:36:12;100013.23;;;4.45;77.89
72096;BME280;59968;51.084;16.748;2023-11-19T05:38:41;100016.44;;;4.47;77.54
72096;BME280;59968;51.084;16.748;2023-11-19T05:41:10;100014.16;;;4.47;77.60
72096;BME280;59968;51.084;16.748;2023-11-19T05:43:38;100017.91;;;4.51;77.45
72096;BME280;59968;51.084;16.748;2023-11-19T05:46:08;100022.04;;;4.51;77.14
72096;BME280;59968;51.084;16.748;2023-11-19T05:48:39;100010.48;;;4.55;77.16
72096;BME280;59968;51.084;16.748;2023-11-19T05:51:08;99998.45;;;4.62;76.96
72096;BME280;59968;51.084;16.748;2023-11-19T05:53:36;99972.02;;;4.55;76.71
72096;BME280;59968;51.084;16.748;2023-11-19T05:56:04;99978.33;;;4.66;76.37
72096;BME280;59968;51.084;16.748;2023-11-19T05:58:33;99970.79;;;4.68;76.33
72096;BME280;59968;51.084;16.748;2023-11-19T06:01:01;99966.33;;;4.70;76.41
72096;BME280;59968;51.084;16.748;2023-11-19T06:03:31;99959.07;;;4.70;76.42
72096;BME280;59968;51.084;16.748;2023-11-19T06:06:00;99960.32;;;4.73;76.41
72096;BME280;59968;51.084;16.748;2023-11-19T06:08:30;99951.63;;;4.76;76.38
72096;BME280;59968;51.084;16.748;2023-11-19T06:10:59;99949.89;;;4.76;76.47
72096;BME280;59968;51.084;16.748;2023-11-19T06:13:29;99954.10;;;4.78;76.49
72096;BME280;59968;51.084;16.748;2023-11-19T06:15:59;99941.66;;;4.79;76.45
72096;BME280;59968;51.084;16.748;2023-11-19T06:18:28;99930.30;;;4.80;76.52
72096;BME280;59968;51.084;16.748;2023-11-19T06:20:57;99936.14;;;4.81;76.51
72096;BME280;59968;51.084;16.748;2023-11-19T06:23:25;99933.55;;;4.82;76.68
72096;BME280;59968;51.084;16.748;2023-11-19T06:25:53;99927.20;;;4.83;76.63
72096;BME280;59968;51.084;16.748;2023-11-19T06:28:22;99918.16;;;4.83;76.75
72096;BME280;59968;51.084;16.748;2023-11-19T06:30:50;99904.18;;;4.82;76.84
72096;BME280;59968;51.084;16.748;2023-11-19T06:33:19;99900.98;;;4.84;76.90
72096;BME280;59968;51.084;16.748;2023-11-19T06:35:47;99904.52;;;4.82;76.90
72096;BME280;59968;51.084;16.748;2023-11-19T06:38:17;99901.20;;;4.81;77.13
72096;BME280;59968;51.084;16.748;2023-11-19T06:40:46;99893.34;;;4.83;77.09
72096;BME280;59968;51.084;16.748;2023-11-19T06:43:19;99887.91;;;4.84;77.05
72096;BME280;59968;51.084;16.748;2023-11-19T06:45:48;99883.02;;;4.85;77.00
72096;BME280;59968;51.084;16.748;2023-11-19T06:48:17;99882.02;;;4.89;76.93
72096;BME280;59968;51.084;16.748;2023-11-19T06:50:46;99887.42;;;4.85;76.95
72096;BME280;59968;51.084;16.748;2023-11-19T06:53:15;99872.48;;;4.89;77.05
72096;BME280;59968;51.084;16.748;2023-11-19T06:55:43;99867.11;;;4.92;76.78
72096;BME280;59968;51.084;16.748;2023-11-19T06:58:12;99862.33;;;4.96;76.71
72096;BME280;59968;51.084;16.748;2023-11-19T07:00:41;99848.46;;;4.97;76.66
72096;BME280;59968;51.084;16.748;2023-11-19T07:03:09;99844.23;;;4.98;76.57
72096;BME280;59968;51.084;16.748;2023-11-19T07:05:38;99841.69;;;4.98;76.67
72096;BME280;59968;51.084;16.748;2023-11-19T07:08:10;99840.15;;;4.98;76.60
72096;BME280;59968;51.084;16.748;2023-11-19T07:10:40;99836.45;;;4.97;76.70
72096;BME280;59968;51.084;16.748;2023-11-19T07:13:08;99834.04;;;4.99;76.83
72096;BME280;59968;51.084;16.748;2023-11-19T07:15:38;99829.90;;;5.01;76.77
72096;BME280;59968;51.084;16.748;2023-11-19T07:18:06;99836.58;;;5.02;76.79
72096;BME280;59968;51.084;16.748;2023-11-19T07:20:35;99840.19;;;5.02;76.86
72096;BME280;59968;51.084;16.748;2023-11-19T07:23:04;99839.73;;;5.05;76.87
72096;BME280;59968;51.084;16.748;2023-11-19T07:25:33;99836.25;;;5.07;76.86
72096;BME280;59968;51.084;16.748;2023-11-19T07:28:03;99834.92;;;5.08;76.77
72096;BME280;59968;51.084;16.748;2023-11-19T07:30:33;99834.83;;;5.10;76.59
72096;BME280;59968;51.084;16.748;2023-11-19T07:33:01;99837.90;;;5.12;76.61
72096;BME280;59968;51.084;16.748;2023-11-19T07:35:32;99838.52;;;5.13;76.65
72096;BME280;59968;51.084;16.748;2023-11-19T07:38:01;99833.81;;;5.15;76.74
72096;BME280;59968;51.084;16.748;2023-11-19T07:40:29;99826.61;;;5.16;76.73
72096;BME280;59968;51.084;16.748;2023-11-19T07:42:58;99821.38;;;5.20;76.69
72096;BME280;59968;51.084;16.748;2023-11-19T07:45:28;99812.98;;;5.22;76.56
72096;BME280;59968;51.084;16.748;2023-11-19T07:47:57;99814.98;;;5.26;76.67
72096;BME280;59968;51.084;16.748;2023-11-19T07:50:25;99817.64;;;5.28;76.57
72096;BME280;59968;51.084;16.748;2023-11-19T07:52:57;99813.09;;;5.29;76.54
72096;BME280;59968;51.084;16.748;2023-11-19T07:55:26;99809.18;;;5.27;76.49
72096;BME280;59968;51.084;16.748;2023-11-19T07:57:55;99806.03;;;5.26;76.69
72096;BME280;59968;51.084;16.748;2023-11-19T08:00:26;99803.50;;;5.26;76.68
72096;BME280;59968;51.084;16.748;2023-11-19T08:02:55;99800.03;;;5.27;76.92
72096;BME280;59968;51.084;16.748;2023-11-19T08:05:24;99798.06;;;5.27;77.22
72096;BME280;59968;51.084;16.748;2023-11-19T08:07:56;99795.98;;;5.26;77.33
72096;BME280;59968;51.084;16.748;2023-11-19T08:10:25;99791.48;;;5.24;77.40
72096;BME280;59968;51.084;16.748;2023-11-19T08:12:54;99783.39;;;5.23;77.52
72096;BME280;59968;51.084;16.748;2023-11-19T08:15:24;99776.48;;;5.22;77.72
72096;BME280;59968;51.084;16.748;2023-11-19T08:17:57;99770.94;;;5.19;77.89
72096;BME280;59968;51.084;16.748;2023-11-19T08:20:26;99766.51;;;5.17;78.16
72096;BME280;59968;51.084;16.748;2023-11-19T08:22:54;99759.05;;;5.15;78.39
72096;BME280;59968;51.084;16.748;2023-11-19T08:25:23;99748.88;;;5.14;78.47
72096;BME280;59968;51.084;16.748;2023-11-19T08:27:53;99741.07;;;5.15;78.68
72096;BME280;59968;51.084;16.748;2023-11-19T08:30:23;99736.08;;;5.17;78.82
72096;BME280;59968;51.084;16.748;2023-11-19T08:32:55;99730.38;;;5.16;78.76
72096;BME280;59968;51.084;16.748;2023-11-19T08:35:25;99727.10;;;5.14;78.92
72096;BME280;59968;51.084;16.748;2023-11-19T08:37:56;99722.36;;;5.13;79.22
72096;BME280;59968;51.084;16.748;2023-11-19T08:40:27;99714.30;;;5.13;79.32
72096;BME280;59968;51.084;16.748;2023-11-19T08:42:56;99701.27;;;5.13;79.36
72096;BME280;59968;51.084;16.748;2023-11-19T08:45:25;99697.13;;;5.13;79.42
72096;BME280;59968;51.084;16.748;2023-11-19T08:47:57;99700.69;;;5.15;79.58
72096;BME280;59968;51.084;16.748;2023-11-19T08:50:27;99703.23;;;5.15;79.53
72096;BME280;59968;51.084;16.748;2023-11-19T08:52:56;99705.39;;;5.18;79.72
72096;BME280;59968;51.084;16.748;2023-11-19T08:55:27;99701.77;;;5.20;79.81
72096;BME280;59968;51.084;16.748;2023-11-19T08:57:58;99695.37;;;5.22;79.84
72096;BME280;59968;51.084;16.748;2023-11-19T09:00:28;99689.39;;;5.24;79.93
72096;BME280;59968;51.084;16.748;2023-11-19T09:02:59;99692.79;;;5.29;80.06
72096;BME280;59968;51.084;16.748;2023-11-19T09:05:28;99698.32;;;5.30;80.23
72096;BME280;59968;51.084;16.748;2023-11-19T09:07:57;99698.56;;;5.32;80.50
72096;BME280;59968;51.084;16.748;2023-11-19T09:10:27;99699.84;;;5.36;80.61
72096;BME280;59968;51.084;16.748;2023-11-19T09:12:56;99685.59;;;5.41;80.73
72096;BME280;59968;51.084;16.748;2023-11-19T09:15:26;99684.33;;;5.45;80.77
72096;BME280;59968;51.084;16.748;2023-11-19T09:17:56;99681.27;;;5.49;80.73
72096;BME280;59968;51.084;16.748;2023-11-19T09:20:24;99682.20;;;5.53;80.69
72096;BME280;59968;51.084;16.748;2023-11-19T09:22:54;99681.40;;;5.57;80.73
72096;BME280;59968;51.084;16.748;2023-11-19T09:25:22;99676.82;;;5.59;80.81
72096;BME280;59968;51.084;16.748;2023-11-19T09:27:51;99672.89;;;5.65;80.89
72096;BME280;59968;51.084;16.748;2023-11-19T09:30:21;99675.23;;;5.71;81.09
72096;BME280;59968;51.084;16.748;2023-11-19T09:32:51;99672.78;;;5.78;81.08
72096;BME280;59968;51.084;16.748;2023-11-19T09:35:20;99663.19;;;5.82;81.10
72096;BME280;59968;51.084;16.748;2023-11-19T09:37:49;99662.58;;;5.88;81.07
72096;BME280;59968;51.084;16.748;2023-11-19T09:40:19;99660.25;;;5.91;80.99
72096;BME280;59968;51.084;16.748;2023-11-19T09:42:49;99657.46;;;5.94;81.05
72096;BME280;59968;51.084;16.748;2023-11-19T09:45:20;99650.80;;;5.98;81.00
72096;BME280;59968;51.084;16.748;2023-11-19T09:47:51;99638.18;;;5.99;80.78
72096;BME280;59968;51.084;16.748;2023-11-19T09:50:21;99627.76;;;6.02;80.80
72096;BME280;59968;51.084;16.748;2023-11-19T09:52:50;99620.56;;;6.03;80.79
72096;BME280;59968;51.084;16.748;2023-11-19T09:55:20;99617.04;;;6.05;80.92
72096;BME280;59968;51.084;16.748;2023-11-19T09:57:50;99611.93;;;6.08;80.84
72096;BME280;59968;51.084;16.748;2023-11-19T10:00:21;99609.33;;;6.08;80.95
72096;BME280;59968;51.084;16.748;2023-11-19T10:02:51;99609.64;;;6.11;80.95
72096;BME280;59968;51.084;16.748;2023-11-19T10:05:23;99599.09;;;6.16;81.08
72096;BME280;59968;51.084;16.748;2023-11-19T10:07:53;99599.98;;;6.20;81.28
72096;BME280;59968;51.084;16.748;2023-11-19T10:10:24;99595.77;;;6.25;81.39
72096;BME280;59968;51.084;16.748;2023-11-19T10:12:55;99589.02;;;6.29;81.31
72096;BME280;59968;51.084;16.748;2023-11-19T10:15:26;99584.91;;;6.33;81.36
72096;BME280;59968;51.084;16.748;2023-11-19T10:17:57;99571.32;;;6.36;81.41
72096;BME280;59968;51.084;16.748;2023-11-19T10:20:28;99569.39;;;6.38;81.21
72096;BME280;59968;51.084;16.748;2023-11-19T10:22:58;99558.09;;;6.40;81.31
72096;BME280;59968;51.084;16.748;2023-11-19T10:25:29;99546.96;;;6.45;81.36
72096;BME280;59968;51.084;16.748;2023-11-19T10:27:59;99540.61;;;6.47;81.45
72096;BME280;59968;51.084;16.748;2023-11-19T10:30:30;99538.70;;;6.50;81.46
72096;BME280;59968;51.084;16.748;2023-11-19T10:33:09;99535.59;;;6.52;81.62
72096;BME280;59968;51.084;16.748;2023-11-19T10:35:57;99542.68;;;6.55;81.63
72096;BME280;59968;51.084;16.748;2023-11-19T10:38:29;99541.44;;;6.58;81.68
72096;BME280;59968;51.084;16.748;2023-11-19T10:40:59;99533.85;;;6.60;81.72
72096;BME280;59968;51.084;16.748;2023-11-19T10:43:29;99527.64;;;6.61;81.65
72096;BME280;59968;51.084;16.748;2023-11-19T10:46:11;99524.67;;;6.64;81.82
72096;BME280;59968;51.084;16.748;2023-11-19T10:48:40;99527.55;;;6.70;81.83
72096;BME280;59968;51.084;16.748;2023-11-19T10:51:10;99521.85;;;6.74;81.88
72096;BME280;59968;51.084;16.748;2023-11-19T10:53:43;99512.98;;;6.77;82.14
72096;BME280;59968;51.084;16.748;2023-11-19T10:56:13;99508.34;;;6.80;82.19
72096;BME280;59968;51.084;16.748;2023-11-19T10:58:45;99502.80;;;6.85;82.17
72096;BME280;59968;51.084;16.748;2023-11-19T11:01:19;99502.61;;;6.88;81.95
72096;BME280;59968;51.084;16.748;2023-11-19T11:03:52;99499.59;;;6.89;81.85
72096;BME280;59968;51.084;16.748;2023-11-19T11:06:23;99494.75;;;6.89;82.00
72096;BME280;59968;51.084;16.748;2023-11-19T11:08:55;99492.30;;;6.90;81.94
72096;BME280;59968;51.084;16.748;2023-11-19T11:11:26;99487.35;;;6.92;82.16
72096;BME280;59968;51.084;16.748;2023-11-19T11:13:59;99483.45;;;6.94;82.17
72096;BME280;59968;51.084;16.748;2023-11-19T11:16:30;99476.13;;;6.96;82.22
72096;BME280;59968;51.084;16.748;2023-11-19T11:19:01;99463.77;;;6.97;82.11
72096;BME280;59968;51.084;16.748;2023-11-19T11:21:32;99464.44;;;6.97;82.28
72096;BME280;59968;51.084;16.748;2023-11-19T11:29:40;99465.43;;;7.06;82.41
72096;BME280;59968;51.084;16.748;2023-11-19T11:35:16;99458.92;;;7.17;82.31
72096;BME280;59968;51.084;16.748;2023-11-19T11:37:52;99455.27;;;7.22;82.17
72096;BME280;59968;51.084;16.748;2023-11-19T11:40:23;99451.73;;;7.27;82.22
72096;BME280;59968;51.084;16.748;2023-11-19T11:42:53;99453.31;;;7.32;82.22
72096;BME280;59968;51.084;16.748;2023-11-19T11:45:37;99451.52;;;7.37;82.17
72096;BME280;59968;51.084;16.748;2023-11-19T11:48:17;99453.73;;;7.43;82.19
72096;BME280;59968;51.084;16.748;2023-11-19T11:50:54;99434.98;;;7.38;82.20
72096;BME280;59968;51.084;16.748;2023-11-19T11:53:24;99444.81;;;7.56;82.06
72096;BME280;59968;51.084;16.748;2023-11-19T11:55:54;99433.68;;;7.61;81.94
72096;BME280;59968;51.084;16.748;2023-11-19T11:58:32;99433.55;;;7.66;81.77
72096;BME280;59968;51.084;16.748;2023-11-19T12:01:04;99433.05;;;7.70;81.49
72096;BME280;59968;51.084;16.748;2023-11-19T12:03:34;99434.11;;;7.75;81.64
72096;BME280;59968;51.084;16.748;2023-11-19T12:06:04;99433.38;;;7.81;81.64
72096;BME280;59968;51.084;16.748;2023-11-19T12:08:34;99434.76;;;7.85;81.56
72096;BME280;59968;51.084;16.748;2023-11-19T12:11:23;99428.08;;;7.93;81.70
72096;BME280;59968;51.084;16.748;2023-11-19T12:13:54;99429.25;;;8.00;81.67
72096;BME280;59968;51.084;16.748;2023-11-19T12:16:27;99427.16;;;8.06;81.79
72096;BME280;59968;51.084;16.748;2023-11-19T12:19:02;99425.13;;;8.15;81.73
72096;BME280;59968;51.084;16.748;2023-11-19T12:21:33;99419.39;;;8.23;81.45
72096;BME280;59968;51.084;16.748;2023-11-19T12:24:03;99410.26;;;8.31;81.18
72096;BME280;59968;51.084;16.748;2023-11-19T12:26:37;99409.13;;;8.41;80.96
72096;BME280;59968;51.084;16.748;2023-11-19T12:29:06;99403.62;;;8.49;80.74
72096;BME280;59968;51.084;16.748;2023-11-19T12:31:37;99396.90;;;8.59;80.45
72096;BME280;59968;51.084;16.748;2023-11-19T12:34:07;99405.17;;;8.67;80.32
72096;BME280;59968;51.084;16.748;2023-11-19T12:36:41;99401.77;;;8.73;80.35
72096;BME280;59968;51.084;16.748;2023-11-19T12:39:11;99401.41;;;8.78;80.33
72096;BME280;59968;51.084;16.748;2023-11-19T12:41:51;99394.77;;;8.84;80.28
72096;BME280;59968;51.084;16.748;2023-11-19T12:44:21;99392.96;;;8.91;79.77
72096;BME280;59968;51.084;16.748;2023-11-19T12:47:00;99388.95;;;8.98;79.45
72096;BME280;59968;51.084;16.748;2023-11-19T12:49:30;99390.58;;;9.07;79.56
72096;BME280;59968;51.084;16.748;2023-11-19T12:51:59;99387.70;;;9.14;79.69
72096;BME280;59968;51.084;16.748;2023-11-19T12:54:46;99385.41;;;9.22;79.57
72096;BME280;59968;51.084;16.748;2023-11-19T12:57:15;99382.33;;;9.34;79.73
72096;BME280;59968;51.084;16.748;2023-11-19T13:00:03;99383.58;;;9.41;79.87
72096;BME280;59968;51.084;16.748;2023-11-19T13:02:48;99385.34;;;9.50;80.05
72096;BME280;59968;51.084;16.748;2023-11-19T13:05:22;99379.97;;;9.60;80.09
72096;BME280;59968;51.084;16.748;2023-11-19T13:08:05;99374.48;;;9.69;80.37
72096;BME280;59968;51.084;16.748;2023-11-19T13:10:50;99371.14;;;9.75;80.69
72096;BME280;59968;51.084;16.748;2023-11-19T13:13:19;99356.33;;;9.77;80.78
72096;BME280;59968;51.084;16.748;2023-11-19T13:15:48;99362.89;;;9.87;80.52
72096;BME280;59968;51.084;16.748;2023-11-19T13:18:18;99361.85;;;9.89;80.46
72096;BME280;59968;51.084;16.748;2023-11-19T13:20:46;99358.25;;;9.92;80.26
72096;BME280;59968;51.084;16.748;2023-11-19T13:23:15;99349.52;;;9.93;80.18